Wildomar, CA

5:42 PM PDT on October 01, 2014 (GMT -0700)
Oceanside Municipal | Change Station
CLOSE
Current Station
Airport
Location: Oceanside,
Elevation: 30 ft
Nearby Weather Stations
Active Advisory: Wind Advisory, Heat Advisory

Elev 30 ft 33.22 °N, 117.35 °W | Updated 50 minutes ago

Clear
Clear
75 °F
Feels Like 75 °F
N
9
Wind Variable Wind from WSW

Today
High -- | Low -- °F
--% Chance of Precip.
Yesterday
High -- | Low -- °F
Precip. -- in
6:43 AM 6:33 PM
First Quarter, 52% visible
Pressure 29.76 in
Visibility 10.0 miles
Clouds Clear
Dew Point 65 °F
Humidity 71%
Rainfall 0.00 in
Snow Depth 0 in , 0 in , 1 in
UV 1 out of 12
Pollen 5.40 out of 12
Ozone Moderate
PM2.5 Good
Flu Activity Not available.
METAR KOKB 302352Z AUTO 25008KT 10SM CLR 24/18 A2976 RMK AO2 SLP076 T02390183 10267 20239 56013

More Conditions Fewer Conditions

Pressure 29.76 in
Visibility 10.0 miles
Clouds Clear
Dew Point 65 °F
Humidity 71%
Rainfall 0.00 in
Snow Depth 0 in , 0 in , 1 in
UV 1 out of 12
Pollen 5.40 out of 12
Ozone Moderate
PM2.5 Good
Flu Activity Not available.
METAR KOKB 302352Z AUTO 25008KT 10SM CLR 24/18 A2976 RMK AO2 SLP076 T02390183 10267 20239 56013

More Conditions Fewer Conditions

10-Day Weather Forecast

Almanac

Astronomy

Oct. 01, 2014 Rise Set
Actual Time 6:43 AM PDT 6:33 PM PDT
Civil Twilight 6:18 AM PDT 6:58 PM PDT
Nautical Twilight 5:49 AM PDT 7:26 PM PDT
Astronomical Twilight 5:20 AM PDT 7:55 PM PDT
Moon 1:36 PM PDT (10/1) No Moon Set
Length of Visible Light 12h 39m
Length of Day
11h 49m
Tomorrow will be 2m 4s shorter.
First Quarter, 52% of the Moon is Illuminated
Today
First Quarter
Oct 8
Full
Oct 15
Last Quarter
Oct 23
New
Oct 30
First Quarter

Today's Extremes

State Highs State Lows

Community

WunderPhotos

Upload Photos

1,758,105 photos uploaded!

WunderBlogs® & News

Nearby

Air Quality

  Air Quality AQ Index Pollutant
Yesterday Moderate
OZONE
Yesterday Good
PM10
Current Moderate
OZONE
Current Good
PM2.5
Thursday Moderate
OZONE
Thursday Moderate
PM10
Thursday Good
CO
Thursday Good
NO2

Snow Depth

Station Depth Elevation
Spratt Creek 0 in 6200 ft
Burnside Lake 0 in 8139 ft
CSS Lab 1 in 6900 ft
Adin Mountain 0 in 6200 ft

Earthquake Activity

City Distance Mag. Time & Date
Avalon, California 68 miles 2.6 1:28 PM PDT
2014-09-30
Minimum magnitude displayed is 2.5.

Coastal Water Temperatures

Place Temperature
La Jolla, CA 73.0 °F
San Diego, CA 73.9 °F

Nearby Weather Stations